Time;durP1;ratioP1;P1;durP2;ratioP2;P2;SDS_P1;SDS_P2;PMS_P1;PMS_P2;Temp;Humidity;BMP_temperature;BMP_pressure;BME280_temperature;BME280_humidity;BME280_pressure;Samples;Min_cycle;Max_cycle;Signal;HPM_P1;HPM_P2
2023/09/04 00:01:11;;;;;;;1.98;1.08;;;;;;;;;;4921845;29;20096;-65
2023/09/04 00:03:37;;;;;;;2.85;1.45;;;;;;;;;;4922194;29;20055;-65
2023/09/04 00:06:04;;;;;;;1.65;1.20;;;;;;;;;;4922126;29;20079;-65
2023/09/04 00:08:30;;;;;;;2.35;1.45;;;;;;;;;;4921910;29;20027;-64
2023/09/04 00:10:56;;;;;;;1.70;1.30;;;;;;;;;;4921545;29;20024;-64
2023/09/04 00:13:22;;;;;;;1.63;1.30;;;;;;;;;;4921929;29;20035;-64
2023/09/04 00:15:48;;;;;;;3.33;1.30;;;;;;;;;;4921793;29;20034;-64
2023/09/04 00:18:14;;;;;;;1.50;1.20;;;;;;;;;;4921995;29;20474;-64
2023/09/04 00:20:40;;;;;;;1.98;1.30;;;;;;;;;;4921728;29;20031;-64
2023/09/04 00:23:06;;;;;;;2.25;1.20;;;;;;;;;;4921462;29;20024;-64
2023/09/04 00:25:32;;;;;;;1.58;1.20;;;;;;;;;;4912111;29;20028;-64
2023/09/04 00:27:58;;;;;;;2.20;1.23;;;;;;;;;;4921722;29;20076;-65
2023/09/04 00:30:25;;;;;;;2.00;1.30;;;;;;;;;;4921468;29;20442;-64
2023/09/04 00:32:52;;;;;;;1.88;1.30;;;;;;;;;;4921533;29;20450;-65
2023/09/04 00:35:19;;;;;;;1.90;1.30;;;;;;;;;;4921333;29;20127;-65
2023/09/04 00:37:45;;;;;;;1.83;1.35;;;;;;;;;;4921302;29;20024;-65
2023/09/04 00:40:11;;;;;;;2.50;1.40;;;;;;;;;;4909892;29;20036;-64
2023/09/04 00:42:37;;;;;;;1.60;1.20;;;;;;;;;;4921363;29;20028;-65
2023/09/04 00:45:04;;;;;;;2.45;1.20;;;;;;;;;;4921152;29;20071;-65
2023/09/04 00:47:31;;;;;;;1.88;1.30;;;;;;;;;;4921292;29;20016;-65
2023/09/04 00:49:57;;;;;;;2.25;1.20;;;;;;;;;;4921086;29;20024;-65
2023/09/04 00:52:24;;;;;;;1.55;1.20;;;;;;;;;;4904038;29;20477;-65
2023/09/04 00:54:50;;;;;;;2.45;1.30;;;;;;;;;;4903923;29;20107;-65
2023/09/04 00:57:16;;;;;;;1.67;1.10;;;;;;;;;;4921482;29;20031;-65
2023/09/04 00:59:43;;;;;;;1.88;1.20;;;;;;;;;;4921125;29;20039;-66
2023/09/04 01:02:11;;;;;;;1.50;1.10;;;;;;;;;;4921025;29;20508;-65
2023/09/04 01:04:37;;;;;;;1.63;1.20;;;;;;;;;;4921018;29;20024;-65
2023/09/04 01:07:03;;;;;;;1.65;1.30;;;;;;;;;;4921030;29;20032;-65
2023/09/04 01:09:29;;;;;;;2.38;1.30;;;;;;;;;;4920918;29;20427;-65
2023/09/04 01:12:10;;;;;;;1.98;1.30;;;;;;;;;;4920995;29;20127;-64
2023/09/04 01:14:38;;;;;;;1.95;1.35;;;;;;;;;;4921158;29;20024;-65
2023/09/04 01:17:04;;;;;;;1.95;1.23;;;;;;;;;;4921025;29;20417;-65
2023/09/04 01:19:30;;;;;;;2.10;1.17;;;;;;;;;;4921021;29;20031;-65
2023/09/04 01:21:56;;;;;;;1.48;1.30;;;;;;;;;;4920623;29;20405;-64
2023/09/04 01:24:22;;;;;;;1.60;1.20;;;;;;;;;;4917055;29;20017;-65
2023/09/04 01:26:59;;;;;;;1.40;1.15;;;;;;;;;;4915633;29;20028;-64
2023/09/04 01:29:31;;;;;;;2.75;1.05;;;;;;;;;;4903875;29;20065;-65
2023/09/04 01:32:15;;;;;;;2.30;1.60;;;;;;;;;;4920807;29;20051;-64
2023/09/04 01:34:46;;;;;;;3.03;1.45;;;;;;;;;;4922441;29;20158;-64
2023/09/04 01:37:12;;;;;;;2.40;1.45;;;;;;;;;;4924437;29;20107;-64
2023/09/04 01:39:39;;;;;;;1.70;1.20;;;;;;;;;;4913343;29;20024;-65
2023/09/04 01:42:05;;;;;;;2.20;1.13;;;;;;;;;;4924777;29;20040;-64
2023/09/04 01:44:31;;;;;;;1.58;1.10;;;;;;;;;;4924481;29;20076;-64
2023/09/04 01:46:56;;;;;;;1.40;1.10;;;;;;;;;;4924626;29;20059;-64
2023/09/04 01:49:23;;;;;;;1.90;1.20;;;;;;;;;;4896856;29;20024;-65
2023/09/04 01:51:48;;;;;;;1.73;1.30;;;;;;;;;;4924417;29;20111;-64
2023/09/04 01:54:14;;;;;;;2.10;1.30;;;;;;;;;;4924437;29;20064;-65
2023/09/04 01:56:40;;;;;;;1.80;1.20;;;;;;;;;;4924491;29;20036;-65
2023/09/04 01:59:06;;;;;;;2.17;1.40;;;;;;;;;;4924375;29;20032;-64
2023/09/04 02:01:33;;;;;;;2.28;1.35;;;;;;;;;;4907242;29;20131;-64
2023/09/04 02:03:59;;;;;;;1.73;1.20;;;;;;;;;;4907248;29;20465;-64
2023/09/04 02:06:26;;;;;;;1.83;1.40;;;;;;;;;;4924363;29;20096;-65
2023/09/04 02:08:52;;;;;;;1.80;1.20;;;;;;;;;;4923888;29;20465;-65
2023/09/04 02:11:18;;;;;;;1.92;1.27;;;;;;;;;;4923968;29;20048;-65
2023/09/04 02:13:47;;;;;;;1.80;1.25;;;;;;;;;;4924051;29;20028;-65
2023/09/04 02:16:13;;;;;;;1.55;1.10;;;;;;;;;;4924148;29;20107;-64
2023/09/04 02:18:40;;;;;;;1.58;1.00;;;;;;;;;;4906910;29;20025;-64
2023/09/04 02:21:06;;;;;;;2.03;1.10;;;;;;;;;;4916309;29;20036;-65
2023/09/04 02:23:33;;;;;;;1.80;1.40;;;;;;;;;;4923649;29;20489;-64
2023/09/04 02:25:59;;;;;;;1.40;1.02;;;;;;;;;;4915649;29;20028;-64
2023/09/04 02:28:25;;;;;;;1.65;1.20;;;;;;;;;;4923791;29;20434;-64
2023/09/04 02:30:51;;;;;;;1.98;1.30;;;;;;;;;;4923919;29;20028;-64
2023/09/04 02:33:17;;;;;;;2.45;1.40;;;;;;;;;;4923635;29;20028;-64
2023/09/04 02:35:43;;;;;;;1.25;1.05;;;;;;;;;;4923917;29;20454;-64
2023/09/04 02:38:09;;;;;;;2.10;1.30;;;;;;;;;;4904615;29;20032;-65
2023/09/04 02:40:35;;;;;;;2.08;1.05;;;;;;;;;;4914303;29;20028;-65
2023/09/04 02:43:01;;;;;;;1.70;1.20;;;;;;;;;;4923495;29;20050;-65
2023/09/04 02:45:27;;;;;;;1.55;1.20;;;;;;;;;;4922737;29;20032;-65
2023/09/04 02:47:53;;;;;;;3.13;1.50;;;;;;;;;;4922945;29;20027;-65
2023/09/04 02:50:19;;;;;;;2.65;1.30;;;;;;;;;;4923660;29;20028;-64
2023/09/04 02:52:45;;;;;;;2.53;1.15;;;;;;;;;;4923088;29;20083;-64
2023/09/04 02:55:13;;;;;;;2.75;1.15;;;;;;;;;;4923412;29;20036;-64
2023/09/04 02:57:39;;;;;;;2.60;0.95;;;;;;;;;;4906281;29;20044;-64
2023/09/04 03:00:06;;;;;;;2.25;1.13;;;;;;;;;;4923341;29;20111;-64
2023/09/04 03:02:33;;;;;;;2.85;1.30;;;;;;;;;;4923058;29;20450;-65
2023/09/04 03:04:59;;;;;;;2.03;1.33;;;;;;;;;;4923296;29;20454;-65
2023/09/04 03:07:26;;;;;;;1.38;1.00;;;;;;;;;;4905887;29;20163;-64
2023/09/04 03:09:56;;;;;;;1.85;1.25;;;;;;;;;;4923155;29;20027;-64
2023/09/04 03:12:23;;;;;;;1.75;1.10;;;;;;;;;;4909558;29;20047;-65
2023/09/04 03:14:54;;;;;;;2.03;1.33;;;;;;;;;;4904271;29;20029;-64
2023/09/04 03:17:20;;;;;;;2.00;1.25;;;;;;;;;;4904069;29;20108;-65
2023/09/04 03:19:46;;;;;;;1.73;1.08;;;;;;;;;;4904182;29;20063;-65
2023/09/04 03:22:12;;;;;;;1.77;1.25;;;;;;;;;;4903669;29;20025;-64
2023/09/04 03:24:38;;;;;;;2.65;1.25;;;;;;;;;;4904009;29;20029;-65
2023/09/04 03:27:04;;;;;;;1.63;1.10;;;;;;;;;;4903717;29;20028;-64
2023/09/04 03:29:30;;;;;;;1.25;1.00;;;;;;;;;;4904054;29;20025;-64
2023/09/04 03:31:56;;;;;;;1.30;1.00;;;;;;;;;;4903692;29;20394;-65
2023/09/04 03:34:22;;;;;;;2.58;1.15;;;;;;;;;;4904035;29;20491;-65
2023/09/04 03:36:48;;;;;;;2.28;1.10;;;;;;;;;;4903353;29;20069;-64
2023/09/04 03:39:14;;;;;;;1.70;1.20;;;;;;;;;;4903930;29;20036;-64
2023/09/04 03:41:40;;;;;;;2.00;1.15;;;;;;;;;;4904799;29;20371;-64
2023/09/04 03:44:06;;;;;;;1.92;1.30;;;;;;;;;;4903762;29;20053;-64
2023/09/04 03:46:32;;;;;;;2.05;1.20;;;;;;;;;;4903190;29;20031;-65
2023/09/04 03:48:58;;;;;;;1.83;0.95;;;;;;;;;;4904917;29;20028;-64
2023/09/04 03:51:24;;;;;;;2.03;1.30;;;;;;;;;;4903272;29;20600;-65
2023/09/04 03:53:50;;;;;;;1.52;1.20;;;;;;;;;;4903385;29;20037;-64
2023/09/04 03:56:16;;;;;;;1.20;0.90;;;;;;;;;;4886520;29;20111;-64
2023/09/04 03:58:43;;;;;;;3.38;1.02;;;;;;;;;;4902999;29;20033;-64
2023/09/04 04:01:09;;;;;;;1.80;1.15;;;;;;;;;;4886377;29;20044;-64
2023/09/04 04:03:35;;;;;;;1.90;1.20;;;;;;;;;;4903269;29;20036;-64
2023/09/04 04:06:08;;;;;;;2.15;1.10;;;;;;;;;;4903078;29;20108;-64
2023/09/04 04:08:34;;;;;;;1.92;1.17;;;;;;;;;;4903047;29;20028;-64
2023/09/04 04:11:00;;;;;;;3.13;1.40;;;;;;;;;;4885781;29;20160;-64
2023/09/04 04:13:26;;;;;;;1.50;1.10;;;;;;;;;;4903187;29;20032;-64
2023/09/04 04:15:52;;;;;;;1.63;1.05;;;;;;;;;;4902867;29;20501;-64
2023/09/04 04:18:18;;;;;;;1.50;1.00;;;;;;;;;;4903037;29;20489;-64
2023/09/04 04:20:44;;;;;;;1.73;1.27;;;;;;;;;;4902766;29;20096;-65
2023/09/04 04:23:10;;;;;;;1.48;0.90;;;;;;;;;;4902756;29;20059;-64
2023/09/04 04:25:36;;;;;;;1.70;1.20;;;;;;;;;;4902411;29;20024;-65
2023/09/04 04:28:02;;;;;;;1.17;1.00;;;;;;;;;;4902918;29;20468;-64
2023/09/04 04:30:28;;;;;;;1.85;1.13;;;;;;;;;;4902706;29;20035;-64
2023/09/04 04:32:54;;;;;;;3.50;1.20;;;;;;;;;;4902801;29;20465;-65
2023/09/04 04:35:20;;;;;;;1.38;1.27;;;;;;;;;;4902419;29;20486;-64
2023/09/04 04:37:47;;;;;;;2.08;1.10;;;;;;;;;;4902560;29;20057;-64
2023/09/04 04:40:19;;;;;;;1.58;1.10;;;;;;;;;;4903488;29;20100;-65
2023/09/04 04:42:45;;;;;;;1.58;0.95;;;;;;;;;;4902590;29;20037;-65
2023/09/04 04:45:11;;;;;;;2.17;1.20;;;;;;;;;;4902576;29;20076;-65
2023/09/04 04:47:37;;;;;;;1.65;1.15;;;;;;;;;;4903481;29;20020;-64
2023/09/04 04:50:03;;;;;;;2.50;1.10;;;;;;;;;;4902670;29;20024;-64
2023/09/04 04:52:29;;;;;;;2.00;1.20;;;;;;;;;;4902098;29;20091;-64
2023/09/04 04:54:55;;;;;;;1.67;1.20;;;;;;;;;;4902159;29;20561;-64
2023/09/04 04:57:21;;;;;;;1.80;1.10;;;;;;;;;;4902494;29;20033;-64
2023/09/04 04:59:47;;;;;;;1.67;1.15;;;;;;;;;;4902327;29;20032;-64
2023/09/04 05:02:13;;;;;;;1.95;1.20;;;;;;;;;;4902193;29;20029;-64
2023/09/04 05:04:45;;;;;;;1.40;0.95;;;;;;;;;;4902279;29;20103;-64
2023/09/04 05:07:11;;;;;;;2.17;1.10;;;;;;;;;;4901933;29;20086;-64
2023/09/04 05:09:38;;;;;;;2.67;1.10;;;;;;;;;;4901584;29;20033;-64
2023/09/04 05:12:04;;;;;;;1.25;1.02;;;;;;;;;;4901981;29;20119;-64
2023/09/04 05:14:30;;;;;;;2.47;1.00;;;;;;;;;;4902145;29;20039;-64
2023/09/04 05:16:56;;;;;;;1.65;1.10;;;;;;;;;;4902021;29;20029;-65
2023/09/04 05:19:22;;;;;;;1.70;1.00;;;;;;;;;;4902168;29;20028;-65
2023/09/04 05:21:48;;;;;;;1.45;1.02;;;;;;;;;;4901700;29;20028;-64
2023/09/04 05:24:14;;;;;;;2.47;1.17;;;;;;;;;;4902057;29;20089;-65
2023/09/04 05:26:40;;;;;;;1.55;0.93;;;;;;;;;;4901849;29;20076;-65
2023/09/04 05:29:06;;;;;;;1.85;1.08;;;;;;;;;;4902048;29;20439;-64
2023/09/04 05:31:32;;;;;;;2.38;1.30;;;;;;;;;;4902016;29;20452;-65
2023/09/04 05:33:58;;;;;;;2.28;1.10;;;;;;;;;;4901956;29;20483;-65
2023/09/04 05:36:24;;;;;;;3.25;1.15;;;;;;;;;;4884969;29;20040;-64
2023/09/04 05:38:50;;;;;;;1.63;1.00;;;;;;;;;;4901792;29;20060;-64
2023/09/04 05:41:16;;;;;;;1.60;1.10;;;;;;;;;;4903002;29;20095;-64
2023/09/04 05:43:42;;;;;;;1.60;1.05;;;;;;;;;;4901939;29;20031;-64
2023/09/04 05:46:08;;;;;;;2.60;1.13;;;21.40;99.90;;;;;;4901723;29;20025;-64
2023/09/04 05:48:34;;;;;;;1.85;0.90;;;21.40;99.90;;;;;;4903126;29;20032;-64
2023/09/04 05:51:01;;;;;;;2.38;1.20;;;21.40;99.90;;;;;;4884860;29;20032;-64
2023/09/04 05:53:28;;;;;;;2.35;1.23;;;21.30;99.90;;;;;;4901669;29;20028;-64
2023/09/04 05:56:09;;;;;;;2.08;1.00;;;21.30;99.90;;;;;;4901393;29;20024;-65
2023/09/04 05:58:42;;;;;;;1.38;1.00;;;21.30;99.90;;;;;;4901910;29;20070;-65
2023/09/04 06:01:08;;;;;;;1.70;1.10;;;21.40;99.90;;;;;;4901471;29;20029;-64
2023/09/04 06:03:33;;;;;;;2.08;1.30;;;21.40;99.90;;;;;;4901658;29;20024;-64
2023/09/04 06:05:59;;;;;;;1.35;1.08;;;21.40;99.90;;;;;;4901656;29;20025;-64
2023/09/04 06:08:24;;;;;;;2.30;1.10;;;21.50;99.90;;;;;;4901463;29;20482;-64
2023/09/04 06:10:53;;;;;;;1.38;1.00;;;;;;;;;;4901354;29;20401;-64
2023/09/04 06:13:18;;;;;;;3.80;1.10;;;21.30;99.90;;;;;;4884636;29;20068;-64
2023/09/04 06:15:44;;;;;;;1.10;0.90;;;;;;;;;;4901344;29;20043;-64
2023/09/04 06:18:10;;;;;;;2.50;1.10;;;21.70;99.90;;;;;;4901521;29;20112;-64
2023/09/04 06:20:35;;;;;;;4.10;1.55;;;21.70;99.90;;;;;;4902808;29;20103;-64
2023/09/04 06:23:02;;;;;;;1.80;1.10;;;21.70;99.90;;;;;;4904539;29;20502;-64
2023/09/04 06:25:28;;;;;;;1.80;1.20;;;21.70;99.90;;;;;;4904427;29;20489;-64
2023/09/04 06:27:54;;;;;;;1.20;0.90;;;21.70;99.90;;;;;;4904817;29;20107;-64
2023/09/04 06:30:19;;;;;;;2.47;1.20;;;21.70;99.90;;;;;;4915626;29;20029;-64
2023/09/04 06:32:45;;;;;;;1.40;1.00;;;21.80;99.90;;;;;;4916180;29;20076;-64
2023/09/04 06:35:11;;;;;;;1.50;1.10;;;21.80;99.90;;;;;;4906396;29;20036;-64
2023/09/04 06:37:36;;;;;;;2.00;1.25;;;21.80;99.90;;;;;;4896373;29;20032;-64
2023/09/04 06:40:03;;;;;;;1.52;1.10;;;21.80;99.90;;;;;;4891100;29;20039;-64
2023/09/04 06:42:30;;;;;;;1.70;1.13;;;;;;;;;;4887271;29;20119;-64
2023/09/04 06:44:56;;;;;;;1.90;1.20;;;;;;;;;;4912619;29;20020;-63
2023/09/04 06:47:22;;;;;;;2.38;1.30;;;;;;;;;;4921189;29;20032;-63
2023/09/04 06:49:48;;;;;;;1.45;1.00;;;;;;;;;;4917376;29;20032;-65
2023/09/04 06:52:13;;;;;;;1.17;0.90;;;22.40;99.90;;;;;;4903804;29;20044;-65
2023/09/04 06:54:39;;;;;;;2.47;1.15;;;22.10;99.90;;;;;;4903668;29;20061;-65
2023/09/04 06:57:05;;;;;;;1.80;1.40;;;22.20;99.90;;;;;;4913648;29;20508;-67
2023/09/04 06:59:30;;;;;;;1.15;0.90;;;22.10;99.90;;;;;;4921186;29;20021;-64
2023/09/04 07:01:56;;;;;;;1.58;1.10;;;22.10;99.90;;;;;;4913133;29;20037;-64
2023/09/04 07:04:22;;;;;;;5.22;1.30;;;;;;;;;;4903661;29;20032;-65
2023/09/04 07:06:48;;;;;;;1.30;0.95;;;;;;;;;;4903760;29;20368;-65
2023/09/04 07:09:14;;;;;;;2.10;0.90;;;;;;;;;;4910571;29;20080;-65
2023/09/04 07:11:40;;;;;;;2.13;1.15;;;;;;;;;;4903809;29;20056;-65
2023/09/04 07:14:06;;;;;;;1.80;1.05;;;;;;;;;;4887042;29;20482;-65
2023/09/04 07:16:37;;;;;;;1.77;1.17;;;;;;;;;;4887188;29;20039;-65
2023/09/04 07:19:03;;;;;;;1.65;0.95;;;;;;;;;;4903938;29;20024;-65
2023/09/04 07:21:29;;;;;;;1.63;0.93;;;;;;;;;;4902182;29;20037;-65
2023/09/04 07:23:55;;;;;;;1.95;1.30;;;;;;;;;;4903796;29;20028;-65
2023/09/04 07:26:21;;;;;;;1.70;1.30;;;;;;;;;;4886915;29;20032;-65
2023/09/04 07:28:48;;;;;;;1.92;1.20;;;;;;;;;;4903656;29;20021;-65
2023/09/04 07:31:18;;;;;;;1.77;1.20;;;;;;;;;;4903649;29;20020;-65
2023/09/04 07:33:44;;;;;;;1.88;1.25;;;;;;;;;;4903117;29;20089;-65
2023/09/04 07:36:10;;;;;;;1.55;1.10;;;;;;;;;;4903676;29;20033;-65
2023/09/04 07:38:36;;;;;;;1.60;1.00;;;;;;;;;;4903160;29;20051;-65
2023/09/04 07:41:03;;;;;;;1.67;1.00;;;;;;;;;;4904943;29;20028;-65
2023/09/04 07:43:31;;;;;;;2.55;1.30;;;;;;;;;;4903020;29;20076;-64
2023/09/04 07:45:57;;;;;;;2.30;1.20;;;;;;;;;;4915261;29;20413;-64
2023/09/04 07:48:23;;;;;;;2.42;1.25;;;;;;;;;;4916515;29;20021;-64
2023/09/04 07:50:49;;;;;;;1.15;0.90;;;;;;;;;;4903270;29;20036;-64
2023/09/04 07:53:15;;;;;;;1.95;1.17;;;;;;;;;;4903065;29;20061;-64
2023/09/04 07:55:44;;;;;;;1.73;0.95;;;;;;;;;;4903132;29;20056;-64
2023/09/04 07:58:10;;;;;;;1.48;1.17;;;;;;;;;;4903324;29;20036;-64
2023/09/04 08:00:36;;;;;;;1.67;1.10;;;;;;;;;;4901762;29;20489;-63
2023/09/04 08:03:04;;;;;;;3.20;1.02;;;23.80;99.90;;;;;;4913603;29;20028;-64
2023/09/04 08:05:29;;;;;;;2.33;1.27;;;23.80;99.90;;;;;;4906013;29;20024;-64
2023/09/04 08:07:55;;;;;;;1.98;1.20;;;23.80;99.90;;;;;;4901091;29;20036;-64
2023/09/04 08:10:20;;;;;;;2.03;1.10;;;23.70;99.90;;;;;;4912656;29;20020;-64
2023/09/04 08:12:46;;;;;;;1.42;0.90;;;23.70;99.90;;;;;;4902890;29;20057;-64
2023/09/04 08:15:11;;;;;;;1.33;1.20;;;23.70;99.90;;;;;;4902711;29;20032;-64
2023/09/04 08:17:38;;;;;;;2.45;1.20;;;;;;;;;;4899856;29;20040;-64
2023/09/04 08:20:04;;;;;;;1.48;1.13;;;;;;;;;;4902532;29;20472;-64
2023/09/04 08:22:30;;;;;;;2.10;1.35;;;;;;;;;;4897576;29;20095;-64
2023/09/04 08:24:56;;;;;;;1.77;1.15;;;;;;;;;;4901963;29;20024;-64
2023/09/04 08:27:22;;;;;;;2.58;1.20;;;;;;;;;;4902288;29;20505;-64
2023/09/04 08:29:48;;;;;;;;;;;;;;;;;;4902672;29;20059;-64
2023/09/04 08:32:14;;;;;;;1.70;1.13;;;;;;;;;;4902270;29;19908;-64
2023/09/04 08:34:40;;;;;;;2.60;1.50;;;;;;;;;;4902553;29;20111;-64
2023/09/04 08:37:06;;;;;;;2.42;1.30;;;;;;;;;;4910352;29;20036;-64
2023/09/04 08:39:32;;;;;;;1.70;1.40;;;;;;;;;;4919602;29;20053;-64
2023/09/04 08:41:58;;;;;;;1.60;1.10;;;;;;;;;;4912997;29;20031;-64
2023/09/04 08:44:25;;;;;;;2.03;1.20;;;;;;;;;;4902375;29;20111;-65
2023/09/04 08:46:51;;;;;;;2.28;1.45;;;;;;;;;;4910931;29;20032;-64
2023/09/04 08:49:18;;;;;;;2.50;1.35;;;;;;;;;;4918684;29;20028;-64
2023/09/04 08:51:45;;;;;;;2.40;1.30;;;;;;;;;;4916668;29;20020;-64
2023/09/04 08:54:11;;;;;;;1.95;1.50;;;;;;;;;;4909981;29;20191;-64
2023/09/04 08:56:38;;;;;;;2.15;1.30;;;;;;;;;;4900845;29;20037;-64
2023/09/04 08:59:04;;;;;;;1.55;1.10;;;;;;;;;;4908969;29;20036;-64
2023/09/04 09:01:33;;;;;;;2.00;1.50;;;;;;;;;;4899011;29;20490;-64
2023/09/04 09:04:01;;;;;;;1.67;1.27;;;;;;;;;;4901408;29;20033;-64
2023/09/04 09:06:27;;;;;;;1.73;1.13;;;;;;;;;;4911649;29;20024;-64
2023/09/04 09:08:55;;;;;;;1.58;1.17;;;;;;;;;;4900423;29;20032;-64
2023/09/04 09:11:22;;;;;;;1.70;1.30;;;;;;;;;;4907128;29;20521;-64
2023/09/04 09:13:48;;;;;;;2.55;1.35;;;;;;;;;;4911999;29;20051;-64
2023/09/04 09:16:18;;;;;;;1.88;0.98;;;;;;;;;;4901851;29;20021;-64
2023/09/04 09:18:44;;;;;;;2.63;1.40;;;;;;;;;;4910396;29;20040;-63
2023/09/04 09:21:26;;;;;;;3.22;1.30;;;;;;;;;;4901789;29;20025;-64
2023/09/04 09:24:09;;;;;;;2.10;1.40;;;;;;;;;;4901911;29;20032;-64
2023/09/04 09:26:37;;;;;;;2.00;1.40;;;;;;;;;;4900645;29;20417;-64
2023/09/04 09:29:03;;;;;;;2.17;1.35;;;;;;;;;;4898978;29;20111;-64
2023/09/04 09:31:30;;;;;;;2.10;1.45;;;;;;;;;;4898981;29;20172;-64
2023/09/04 09:33:56;;;;;;;4.72;1.52;;;;;;;;;;4914463;29;20032;-64
2023/09/04 09:36:22;;;;;;;1.85;1.35;;;;;;;;;;4906330;29;20043;-64
2023/09/04 09:38:48;;;;;;;1.70;1.30;;;;;;;;;;4901455;29;20029;-63
2023/09/04 09:41:14;;;;;;;1.95;1.30;;;;;;;;;;4902394;29;20032;-64
2023/09/04 09:43:43;;;;;;;2.10;1.42;;;;;;;;;;4906334;29;20393;-64
2023/09/04 09:46:09;;;;;;;1.88;1.40;;;;;;;;;;4906826;29;20029;-64
2023/09/04 09:48:41;;;;;;;1.80;1.33;;;;;;;;;;4902302;29;20033;-64
2023/09/04 09:51:07;;;;;;;2.65;1.20;;;;;;;;;;4901281;29;20041;-64
2023/09/04 09:53:50;;;;;;;2.45;1.40;;;;;;;;;;4907243;29;20029;-65
2023/09/04 09:56:17;;;;;;;2.20;1.10;;;;;;;;;;4901321;29;20029;-64
2023/09/04 09:58:45;;;;;;;2.38;1.58;;;;;;;;;;4912516;29;20404;-64
2023/09/04 10:01:12;;;;;;;2.00;1.50;;;;;;;;;;4919254;29;20036;-64
2023/09/04 10:03:38;;;;;;;2.53;1.40;;;;;;;;;;4920027;29;20040;-64
2023/09/04 10:06:05;;;;;;;1.83;1.40;;;;;;;;;;4921455;29;20020;-64
2023/09/04 10:08:38;;;;;;;3.22;1.50;;;;;;;;;;4913009;29;20040;-65
2023/09/04 10:11:06;;;;;;;2.92;1.25;;;;;;;;;;4903684;29;20056;-64
2023/09/04 10:13:35;;;;;;;1.30;1.10;;;;;;;;;;4903837;29;20059;-65
2023/09/04 10:16:03;;;;;;;1.65;1.40;;;;;;;;;;4913116;29;20032;-65
2023/09/04 10:18:30;;;;;;;1.73;1.15;;;;;;;;;;4913803;29;20119;-64
2023/09/04 10:20:57;;;;;;;2.22;1.27;;;;;;;;;;4903488;29;20028;-65
2023/09/04 10:23:30;;;;;;;2.15;1.30;;;;;;;;;;4901927;29;20033;-65
2023/09/04 10:25:59;;;;;;;2.75;1.17;;;;;;;;;;4902921;29;20052;-65
2023/09/04 10:28:33;;;;;;;2.17;1.20;;;;;;;;;;4908764;29;20539;-64
2023/09/04 10:31:00;;;;;;;1.75;1.17;;;;;;;;;;4903992;29;20062;-64
2023/09/04 10:33:26;;;;;;;1.73;1.35;;;;;;;;;;4904275;29;20036;-64
2023/09/04 10:35:54;;;;;;;2.97;1.30;;;;;;;;;;4904361;29;20037;-64
2023/09/04 10:38:20;;;;;;;1.77;1.35;;;;;;;;;;4903961;29;20084;-64
2023/09/04 10:40:47;;;;;;;1.63;1.20;;;;;;;;;;4913373;29;20458;-64
2023/09/04 10:43:13;;;;;;;1.90;1.30;;;;;;;;;;4910684;29;20111;-64
2023/09/04 10:45:39;;;;;;;1.83;1.48;;;;;;;;;;4913122;29;20108;-64
2023/09/04 10:48:06;;;;;;;1.95;1.20;;;;;;;;;;4887643;29;20024;-64
2023/09/04 10:50:39;;;;;;;1.85;1.20;;;;;;;;;;4887166;29;20032;-64
2023/09/04 10:53:06;;;;;;;1.83;1.20;;;;;;;;;;4902730;29;20048;-64
2023/09/04 10:55:34;;;;;;;1.42;1.10;;;;;;;;;;4903418;29;20028;-64
2023/09/04 10:58:01;;;;;;;2.53;1.20;;;;;;;;;;4903582;29;20039;-65
2023/09/04 11:00:32;;;;;;;3.10;1.13;;;;;;;;;;4887089;29;20089;-65
2023/09/04 11:03:12;;;;;;;1.33;1.05;;;;;;;;;;4903147;29;20063;-65
2023/09/04 11:05:56;;;;;;;1.30;1.00;;;;;;;;;;4903846;29;20020;-64
2023/09/04 11:08:26;;;;;;;2.30;1.10;;;;;;;;;;4902529;29;20024;-65
2023/09/04 11:10:59;;;;;;;2.00;1.10;;;;;;;;;;4887499;29;20021;-65
2023/09/04 11:13:26;;;;;;;2.53;1.20;;;;;;;;;;4916925;29;20031;-65
2023/09/04 11:15:58;;;;;;;2.17;1.30;;;;;;;;;;4921629;29;20066;-65
2023/09/04 11:18:30;;;;;;;1.80;1.38;;;;;;;;;;4917163;29;20040;-65
2023/09/04 11:20:57;;;;;;;1.90;1.50;;;;;;;;;;4919607;29;20379;-65
2023/09/04 11:23:26;;;;;;;1.40;1.08;;;;;;;;;;4921220;29;20052;-64
2023/09/04 11:25:53;;;;;;;1.42;1.30;;;;;;;;;;4920590;29;20032;-64
2023/09/04 11:28:22;;;;;;;1.20;0.85;;;;;;;;;;4922558;29;20080;-64
2023/09/04 11:30:49;;;;;;;3.05;1.15;;;;;;;;;;4921956;29;20378;-65
2023/09/04 11:33:15;;;;;;;1.65;0.93;;;;;;;;;;4918973;29;20110;-65
2023/09/04 11:35:41;;;;;;;1.98;1.20;;;;;;;;;;4922425;29;20458;-65
2023/09/04 11:38:27;;;;;;;1.70;1.20;;;;;;;;;;4920147;29;20044;-65
2023/09/04 11:40:53;;;;;;;2.13;1.10;;;;;;;;;;4915150;29;20028;-65
2023/09/04 11:43:20;;;;;;;2.25;1.00;;;;;;;;;;4920924;29;20032;-65
2023/09/04 11:45:46;;;;;;;3.38;1.55;;;;;;;;;;4921536;29;20099;-65
2023/09/04 11:48:15;;;;;;;1.75;1.20;;;;;;;;;;4920487;29;20843;-65
2023/09/04 11:50:44;;;;;;;1.58;1.08;;;;;;;;;;4921449;29;20051;-65
2023/09/04 11:53:10;;;;;;;2.67;1.20;;;;;;;;;;4920881;29;20024;-65
2023/09/04 11:55:36;;;;;;;1.85;1.00;;;;;;;;;;4921642;29;20039;-65
2023/09/04 11:58:03;;;;;;;1.58;1.10;;;;;;;;;;4921177;29;20044;-65
2023/09/04 12:00:29;;;;;;;3.50;1.25;;;;;;;;;;4921317;29;20032;-64
2023/09/04 12:02:55;;;;;;;1.33;0.98;;;;;;;;;;4909124;29;20063;-65
2023/09/04 12:05:21;;;;;;;1.55;1.15;;;;;;;;;;4919985;29;20031;-65
2023/09/04 12:07:47;;;;;;;3.70;1.35;;;;;;;;;;4921455;29;20482;-65
2023/09/04 12:10:13;;;;;;;1.35;1.20;;;;;;;;;;4914905;29;20107;-64
2023/09/04 12:12:39;;;;;;;1.65;1.10;;;;;;;;;;4929463;29;20071;-65
2023/09/04 12:15:06;;;;;;;2.22;1.45;;;;;;;;;;4929715;29;20032;-64
2023/09/04 12:17:32;;;;;;;1.85;1.17;;;;;;;;;;4920814;29;20024;-64
2023/09/04 12:19:58;;;;;;;1.15;0.98;;;;;;;;;;4920189;29;20420;-64
2023/09/04 12:22:24;;;;;;;2.63;1.33;;;;;;;;;;4924617;29;20036;-65
2023/09/04 12:25:09;;;;;;;1.70;1.33;;;;;;;;;;4920519;29;20016;-65
2023/09/04 12:27:36;;;;;;;1.63;1.15;;;;;;;;;;4909562;29;20020;-65
2023/09/04 12:30:04;;;;;;;2.80;1.17;;;;;;;;;;4920493;29;20035;-65
2023/09/04 12:32:32;;;;;;;3.10;1.10;;;;;;;;;;4930931;29;20059;-65
2023/09/04 12:35:03;;;;;;;3.67;1.05;;;;;;;;;;4939197;29;20118;-65
2023/09/04 12:37:31;;;;;;;2.17;1.20;;;;;;;;;;4920222;29;20065;-65
2023/09/04 12:39:57;;;;;;;1.30;1.13;;;;;;;;;;4911123;29;20123;-65
2023/09/04 12:42:23;;;;;;;2.13;1.05;;;;;;;;;;4929783;29;20440;-65
2023/09/04 12:44:49;;;;;;;2.30;1.10;;;;;;;;;;4934275;29;20027;-65
2023/09/04 12:47:15;;;;;;;1.48;1.05;;;;;;;;;;4939090;29;20042;-65
2023/09/04 12:49:40;;;;;;;4.05;1.48;;;;;;;;;;4922975;29;20476;-65
2023/09/04 12:52:06;;;;;;;1.73;1.10;;;;;;;;;;4923741;29;20580;-65
2023/09/04 12:54:32;;;;;;;1.17;1.00;;;;;;;;;;4919811;29;20032;-65
2023/09/04 12:56:58;;;;;;;1.95;1.20;;;;;;;;;;4930960;29;20105;-65
2023/09/04 12:59:25;;;;;;;2.95;1.10;;;;;;;;;;4938154;29;20504;-64
2023/09/04 13:01:51;;;;;;;1.58;0.93;;;;;;;;;;4928384;29;20119;-65
2023/09/04 13:04:18;;;;;;;1.50;1.08;;;;;;;;;;4919465;29;20067;-65
2023/09/04 13:06:44;;;;;;;1.08;0.90;;;;;;;;;;4919583;29;20111;-65
2023/09/04 13:09:10;;;;;;;1.60;1.15;;;;;;;;;;4919500;29;20091;-65
2023/09/04 13:11:36;;;;;;;2.45;1.15;;;;;;;;;;4912833;29;20087;-65
2023/09/04 13:14:02;;;;;;;1.35;1.10;;;;;;;;;;4908517;29;20043;-65
2023/09/04 13:16:28;;;;;;;1.35;0.95;;;;;;;;;;4920757;29;20032;-65
2023/09/04 13:18:55;;;;;;;2.00;1.10;;;;;;;;;;4919938;29;20032;-65
2023/09/04 13:21:21;;;;;;;1.40;1.00;;;;;;;;;;4891969;29;20032;-66
2023/09/04 13:23:47;;;;;;;1.10;0.88;;;;;;;;;;4901004;29;20024;-65
2023/09/04 13:26:13;;;;;;;1.90;1.00;;;;;;;;;;4910896;29;20039;-66
2023/09/04 13:28:39;;;;;;;1.33;0.98;;;;;;;;;;4912995;29;20039;-66
2023/09/04 13:31:05;;;;;;;3.08;0.95;;;;;;;;;;4916468;29;20035;-66
2023/09/04 13:33:33;;;;;;;1.38;1.17;;;;;;;;;;4902991;29;20100;-65
2023/09/04 13:35:59;;;;;;;1.67;1.00;;;;;;;;;;4889343;29;20048;-66
2023/09/04 13:38:25;;;;;;;1.17;0.90;;;;;;;;;;4906545;29;20442;-65
2023/09/04 13:40:51;;;;;;;1.40;1.00;;;;;;;;;;4909539;29;20024;-66
2023/09/04 13:43:17;;;;;;;1.38;1.00;;;;;;;;;;4905446;29;20040;-66
2023/09/04 13:45:43;;;;;;;2.25;1.10;;;;;;;;;;4917274;29;20025;-66
2023/09/04 13:48:09;;;;;;;1.15;0.90;;;;;;;;;;4899960;29;20036;-65
2023/09/04 13:50:35;;;;;;;1.17;0.90;;;;;;;;;;4900282;29;20028;-65
2023/09/04 13:53:01;;;;;;;2.78;1.10;;;;;;;;;;4900679;29;20075;-65
2023/09/04 13:55:28;;;;;;;1.70;0.93;;;;;;;;;;4901156;29;20028;-66
2023/09/04 13:57:54;;;;;;;2.72;1.10;;;;;;;;;;4900609;29;20047;-66
2023/09/04 14:00:20;;;;;;;1.98;0.80;;;;;;;;;;4900542;29;20037;-66
2023/09/04 14:02:47;;;;;;;2.60;1.00;;;;;;;;;;4910721;29;20043;-65
2023/09/04 14:05:16;;;;;;;1.63;1.00;;;;;;;;;;4900614;29;20041;-66
2023/09/04 14:07:42;;;;;;;2.50;0.90;;;;;;;;;;4884010;29;20060;-66
2023/09/04 14:10:08;;;;;;;1.83;0.95;;;;;;;;;;4899736;29;20532;-66
2023/09/04 14:12:35;;;;;;;1.63;1.00;;;;;;;;;;4914520;29;20064;-65
2023/09/04 14:15:01;;;;;;;1.05;0.75;;;;;;;;;;4920579;29;20114;-66
2023/09/04 14:17:27;;;;;;;1.40;1.00;;;;;;;;;;4935696;29;20084;-66
2023/09/04 14:19:53;;;;;;;1.50;0.98;;;;;;;;;;4933710;29;20075;-66
2023/09/04 14:22:19;;;;;;;1.00;0.77;;;;;;;;;;4936032;29;20035;-65
2023/09/04 14:24:45;;;;;;;1.42;0.70;;;;;;;;;;4931657;29;20072;-66
2023/09/04 14:27:11;;;;;;;1.25;0.90;;;;;;;;;;4918870;29;20036;-65
2023/09/04 14:29:37;;;;;;;2.13;0.82;;;;;;;;;;4919336;29;20069;-66